Weather at Stockholm-Arlanda Airport

Public forecast

Using degrees Celsius for public forecast. Weather courtesy of forecast.io.

Current aviation weather report (METAR) for Stockholm-Arlanda Airport

Report is more than 6 hours old.

2022/11/14 15:20 (retrieved 2 years ago)

ESSA 141520Z 25005KT 9999 BKN006 06/06 Q1022 NOSIG

Aviation forecast (TAF) for Stockholm-Arlanda Airport

Forecast is more than 12 hours old.

2023/02/22 21:21 (retrieved 1 year ago)

TAF ESSA 222030Z 2221/2321 17006KT 9999 BKN030 BECMG 2303/2305 3000 -SN TEMPO 2305/2316 1200 SN BKN007 BECMG 2316/2318 9999 NSW SCT020 PROB40 2318/2321 BKN006